Time;durP1;ratioP1;P1;durP2;ratioP2;P2;SDS_P1;SDS_P2;PMS_P1;PMS_P2;Temp;Humidity;BMP_temperature;BMP_pressure;BME280_temperature;BME280_humidity;BME280_pressure;Samples;Min_cycle;Max_cycle;Signal;HPM_P1;HPM_P2
2022/02/17 00:03:39;;;;;;;0.20;0.20;;;10.90;99.90;;;;;;20661206;28;20042;-76
2022/02/17 00:13:40;;;;;;;0.10;0.10;;;10.90;99.90;;;;;;20676244;28;20041;-75
2022/02/17 00:23:41;;;;;;;0.80;0.40;;;10.90;99.90;;;;;;20661145;28;20030;-75
2022/02/17 00:33:42;;;;;;;0.30;0.10;;;11.00;99.90;;;;;;20673633;28;20057;-76
2022/02/17 00:43:43;;;;;;;1.47;0.10;;;11.00;99.90;;;;;;20691241;28;20038;-76
2022/02/17 00:53:44;;;;;;;0.10;0.10;;;11.00;99.90;;;;;;20675878;28;20031;-76
2022/02/17 01:03:45;;;;;;;0.20;0.20;;;11.20;99.90;;;;;;20673783;28;20061;-76
2022/02/17 01:13:45;;;;;;;0.10;0.10;;;11.40;99.90;;;;;;20691240;28;20042;-76
2022/02/17 01:23:46;;;;;;;0.00;0.00;;;11.50;99.90;;;;;;20675841;28;20413;-77
2022/02/17 01:33:49;;;;;;;0.10;0.10;;;11.70;99.90;;;;;;20690384;28;20039;-76
2022/02/17 01:43:50;;;;;;;0.30;0.17;;;11.60;99.90;;;;;;20689566;28;20022;-76
2022/02/17 01:53:52;;;;;;;0.22;0.20;;;11.50;99.90;;;;;;20805021;22;20056;-76
2022/02/17 02:03:53;;;;;;;0.43;0.20;;;11.20;99.90;;;;;;20904322;28;20068;-76
2022/02/17 02:13:56;;;;;;;0.20;0.20;;;10.80;99.90;;;;;;20911614;28;20087;-75
2022/02/17 02:24:03;;;;;;;0.10;0.10;;;10.60;99.90;;;;;;20904714;28;20049;-76
2022/02/17 02:34:04;;;;;;;0.10;0.10;;;11.00;99.90;;;;;;20917232;28;20029;-75
2022/02/17 02:44:05;;;;;;;0.10;0.10;;;10.90;99.90;;;;;;20913237;28;20112;-76
2022/02/17 02:54:10;;;;;;;0.08;0.08;;;10.80;99.90;;;;;;20891559;28;20411;-77
2022/02/17 03:04:14;;;;;;;0.10;0.10;;;10.80;99.90;;;;;;20879263;28;20036;-76
2022/02/17 03:14:16;;;;;;;0.10;0.10;;;10.90;99.90;;;;;;20931193;28;20032;-76
2022/02/17 03:24:18;;;;;;;0.50;0.10;;;10.80;99.90;;;;;;20907612;28;20436;-77
2022/02/17 03:34:19;;;;;;;0.52;0.20;;;10.60;99.90;;;;;;20909065;28;20115;-76
2022/02/17 03:44:20;;;;;;;0.30;0.30;;;10.50;99.90;;;;;;20902015;28;20068;-76
2022/02/17 03:54:23;;;;;;;0.35;0.20;;;10.50;99.90;;;;;;20929771;28;20075;-76
2022/02/17 04:04:32;;;;;;;0.10;0.10;;;10.30;99.90;;;;;;20913474;28;20116;-76
2022/02/17 04:14:33;;;;;;;0.10;0.10;;;10.20;99.90;;;;;;20917329;28;20057;-76
2022/02/17 04:24:35;;;;;;;0.20;0.20;;;10.20;99.90;;;;;;20935491;28;20021;-76
2022/02/17 04:34:36;;;;;;;0.38;0.10;;;10.30;99.90;;;;;;20920374;28;20028;-78
2022/02/17 04:44:46;;;;;;;0.20;0.20;;;10.30;99.90;;;;;;20920716;28;20044;-78
2022/02/17 04:54:47;;;;;;;0.10;0.10;;;10.40;99.90;;;;;;20918632;28;20064;-77
2022/02/17 05:04:50;;;;;;;0.43;0.17;;;10.50;99.90;;;;;;20916998;28;20391;-78
2022/02/17 05:14:55;;;;;;;0.10;0.10;;;10.70;99.90;;;;;;20915656;28;20491;-77
2022/02/17 05:24:57;;;;;;;0.20;0.10;;;11.10;99.90;;;;;;20916156;28;20033;-77
2022/02/17 05:35:10;;;;;;;0.63;0.40;;;11.30;99.90;;;;;;20917447;28;20037;-77
2022/02/17 05:45:22;;;;;;;0.20;0.10;;;11.40;99.90;;;;;;20913584;28;20035;-77
2022/02/17 05:55:22;;;;;;;0.50;0.10;;;11.70;99.90;;;;;;20912136;28;20028;-77
2022/02/17 06:05:23;;;;;;;0.40;0.10;;;11.80;99.90;;;;;;20903191;28;20029;-77
2022/02/17 06:15:24;;;;;;;0.20;0.20;;;12.00;99.90;;;;;;20910430;28;20032;-77
2022/02/17 06:25:25;;;;;;;0.10;0.10;;;12.00;99.90;;;;;;20916732;28;20025;-77
2022/02/17 06:35:30;;;;;;;0.20;0.20;;;12.10;99.90;;;;;;20907923;28;20017;-78
2022/02/17 06:45:31;;;;;;;2.67;0.98;;;12.30;99.90;;;;;;20909081;28;20090;-74
2022/02/17 06:55:38;;;;;;;1.58;0.73;;;12.30;99.90;;;;;;20892627;28;20053;-73
2022/02/17 07:05:40;;;;;;;9.82;3.97;;;12.60;99.90;;;;;;20896323;28;20035;-77
2022/02/17 07:15:43;;;;;;;;;;;12.80;99.90;;;;;;20907798;28;20060;-76
2022/02/17 07:25:45;;;;;;;0.10;0.10;;;12.30;99.90;;;;;;20891202;28;19928;-77
2022/02/17 07:35:46;;;;;;;0.10;0.10;;;12.60;99.90;;;;;;20901994;28;20037;-78
2022/02/17 07:45:46;;;;;;;0.10;0.10;;;13.50;99.90;;;;;;20906075;28;20040;-76
2022/02/17 07:55:47;;;;;;;0.10;0.10;;;12.60;99.90;;;;;;20910418;28;20406;-76
2022/02/17 08:05:49;;;;;;;0.57;0.20;;;12.00;99.90;;;;;;20906867;28;20061;-77
2022/02/17 08:15:52;;;;;;;0.53;0.10;;;12.30;99.90;;;;;;20906664;28;20029;-77
2022/02/17 08:25:54;;;;;;;0.10;0.10;;;12.60;99.90;;;;;;20906046;28;20025;-77
2022/02/17 08:35:55;;;;;;;0.20;0.20;;;12.70;99.90;;;;;;20905709;28;20514;-77
2022/02/17 08:45:56;;;;;;;0.63;0.30;;;12.90;99.90;;;;;;20904550;28;20029;-78
2022/02/17 08:55:56;;;;;;;2.30;0.40;;;11.50;99.90;;;;;;20919517;28;20029;-77
2022/02/17 09:05:57;;;;;;;0.50;0.40;;;10.90;99.90;;;;;;20919149;28;20487;-77
2022/02/17 09:15:58;;;;;;;3.63;1.00;;;10.90;99.90;;;;;;20919816;28;20106;-77
2022/02/17 09:26:08;;;;;;;2.53;0.90;;;11.10;99.90;;;;;;20916255;28;20079;-77
2022/02/17 09:36:09;;;;;;;8.50;1.52;;;11.50;99.90;;;;;;20917277;28;20029;-77
2022/02/17 09:46:12;;;;;;;13.67;1.50;;;11.40;99.90;;;;;;20915759;28;20077;-77
2022/02/17 09:56:14;;;;;;;7.32;1.05;;;10.50;99.90;;;;;;20914975;28;20136;-77
2022/02/17 10:06:17;;;;;;;7.20;1.20;;;10.30;99.90;;;;;;20914026;28;20110;-76
2022/02/17 10:16:17;;;;;;;10.45;1.92;;;10.40;99.90;;;;;;20912055;28;20511;-77
2022/02/17 10:26:20;;;;;;;10.47;1.83;;;10.20;99.90;;;;;;20912650;28;20033;-77
2022/02/17 10:36:36;;;;;;;10.30;1.63;;;10.40;99.90;;;;;;20903534;28;20513;-76
2022/02/17 10:46:37;;;;;;;12.25;2.25;;;10.20;99.90;;;;;;20916503;28;20025;-77
2022/02/17 10:56:40;;;;;;;16.60;2.13;;;10.30;99.90;;;;;;20925929;28;20163;-77
2022/02/17 11:06:43;;;;;;;8.43;1.67;;;10.40;99.90;;;;;;20910107;28;20025;-77
2022/02/17 11:16:44;;;;;;;10.88;1.70;;;11.30;99.90;;;;;;20908738;28;20039;-77
2022/02/17 11:26:45;;;;;;;13.17;1.57;;;11.70;99.90;;;;;;20908581;28;20091;-76
2022/02/17 11:36:45;;;;;;;10.83;1.80;;;12.80;99.90;;;;;;20890059;28;20025;-76
2022/02/17 11:46:50;;;;;;;10.03;1.50;;;11.60;99.90;;;;;;20907488;28;20017;-77
2022/02/17 11:56:52;;;;;;;8.55;1.23;;;11.60;99.90;;;;;;20922301;28;20472;-76
2022/02/17 12:07:05;;;;;;;13.40;1.40;;;12.70;99.90;;;;;;20906755;28;20025;-76
2022/02/17 12:17:08;;;;;;;2.88;0.98;;;13.60;99.90;;;;;;20906276;28;20037;-77
2022/02/17 12:27:19;;;;;;;8.05;1.42;;;13.90;99.90;;;;;;20915166;28;20385;-77
2022/02/17 12:37:21;;;;;;;7.53;1.55;;;14.40;99.90;;;;;;20921445;28;20135;-77
2022/02/17 12:47:21;;;;;;;;;;;14.30;99.90;;;;;;20920914;28;20029;-77
2022/02/17 12:57:27;;;;;;;6.20;1.57;;;14.10;99.90;;;;;;20919505;28;19913;-76
2022/02/17 13:07:33;;;;;;;7.45;1.20;;;14.70;99.90;;;;;;20918992;28;20283;-77
2022/02/17 13:17:35;;;;;;;6.10;1.30;;;14.50;99.90;;;;;;20918024;28;20364;-77
2022/02/17 13:27:41;;;;;;;5.68;1.10;;;13.00;99.90;;;;;;20916963;28;20037;-77
2022/02/17 13:37:53;;;;;;;6.53;1.40;;;12.00;99.90;;;;;;20916067;28;20368;-77
2022/02/17 13:47:54;;;;;;;5.78;1.48;;;11.30;99.90;;;;;;20915414;28;20503;-75
2022/02/17 13:57:58;;;;;;;8.10;1.47;;;10.90;99.90;;;;;;20914318;28;20044;-76
2022/02/17 14:08:01;;;;;;;7.53;1.05;;;10.70;99.90;;;;;;20933567;22;20052;-78
2022/02/17 14:18:02;;;;;;;4.88;1.30;;;10.60;99.90;;;;;;20921752;28;20029;-79
2022/02/17 14:28:04;;;;;;;5.57;2.25;;;10.40;99.90;;;;;;20921217;28;20398;-78
2022/02/17 14:38:06;;;;;;;5.17;1.63;;;10.30;99.90;;;;;;20920530;28;20028;-77
2022/02/17 14:48:08;;;;;;;10.45;1.60;;;10.30;99.90;;;;;;20899918;28;20029;-78
2022/02/17 14:58:09;;;;;;;12.63;1.45;;;10.40;99.90;;;;;;20861535;28;20766;-78
2022/02/17 15:08:10;;;;;;;8.17;1.60;;;10.60;99.90;;;;;;20897619;28;20036;-79
2022/02/17 15:18:12;;;;;;;9.98;1.65;;;10.70;99.90;;;;;;20948065;28;20041;-79
2022/02/17 15:28:13;;;;;;;16.80;1.80;;;10.70;99.90;;;;;;20909697;28;20058;-78
2022/02/17 15:38:15;;;;;;;7.23;1.20;;;10.60;99.90;;;;;;20904634;28;20052;-79
2022/02/17 15:48:17;;;;;;;8.30;1.50;;;10.50;99.90;;;;;;20901310;28;20029;-79
2022/02/17 15:58:18;;;;;;;13.47;2.23;;;10.50;99.90;;;;;;20900838;28;20029;-77
2022/02/17 16:08:19;;;;;;;6.03;1.43;;;10.40;99.90;;;;;;20907797;28;20045;-78
2022/02/17 16:18:22;;;;;;;24.20;2.67;;;10.50;99.90;;;;;;20910718;28;20120;-79
2022/02/17 16:28:23;;;;;;;12.95;2.53;;;10.40;99.90;;;;;;20857695;28;20125;-78
2022/02/17 16:38:24;;;;;;;10.83;2.17;;;10.20;99.90;;;;;;20826423;28;20124;-78
2022/02/17 16:48:25;;;;;;;27.50;2.93;;;10.20;99.90;;;;;;20821463;28;20030;-79
2022/02/17 16:58:26;;;;;;;16.43;1.83;;;10.10;99.90;;;;;;20879452;28;20302;-78
2022/02/17 17:08:28;;;;;;;12.27;2.57;;;10.00;99.90;;;;;;20880298;28;20076;-76
2022/02/17 17:18:30;;;;;;;13.30;3.17;;;9.80;99.90;;;;;;20890788;28;20033;-76
2022/02/17 17:28:31;;;;;;;11.68;2.20;;;9.70;99.90;;;;;;20862274;28;20030;-77
2022/02/17 17:38:36;;;;;;;21.40;2.45;;;9.80;99.90;;;;;;20856426;28;20116;-77
2022/02/17 17:48:39;;;;;;;10.98;1.88;;;9.70;99.90;;;;;;20800029;28;20500;-77
2022/02/17 17:58:39;;;;;;;15.75;3.47;;;9.60;99.90;;;;;;20873096;28;20115;-76
2022/02/17 18:08:42;;;;;;;12.33;2.20;;;9.60;99.90;;;;;;20896532;28;20139;-77
2022/02/17 18:18:43;;;;;;;19.55;2.92;;;9.50;99.90;;;;;;20895362;28;20044;-77
2022/02/17 18:28:44;;;;;;;19.77;2.70;;;9.50;99.90;;;;;;20896601;28;20353;-77
2022/02/17 18:38:45;;;;;;;21.30;2.90;;;9.50;99.90;;;;;;20894231;28;20037;-77
2022/02/17 18:48:46;;;;;;;18.80;3.13;;;9.50;99.90;;;;;;20892348;28;20590;-78
2022/02/17 18:58:48;;;;;;;13.27;2.03;;;9.50;99.90;;;;;;20890659;28;20047;-77
2022/02/17 19:08:49;;;;;;;11.70;2.28;;;9.40;99.90;;;;;;20860393;28;20449;-77
2022/02/17 19:18:50;;;;;;;15.07;3.00;;;9.40;99.90;;;;;;20851011;28;20037;-78
2022/02/17 19:28:54;;;;;;;13.67;4.60;;;9.30;99.90;;;;;;20846939;28;20889;-79
2022/02/17 19:38:55;;;;;;;16.30;2.70;;;9.10;99.90;;;;;;20838188;28;20036;-78
2022/02/17 19:48:57;;;;;;;16.40;2.90;;;9.00;99.90;;;;;;20868268;28;20029;-78
2022/02/17 19:58:58;;;;;;;13.03;3.13;;;9.00;99.90;;;;;;20870348;28;20029;-77
2022/02/17 20:08:59;;;;;;;15.73;2.97;;;9.00;99.90;;;;;;20805830;22;20054;-76
2022/02/17 20:19:03;;;;;;;18.75;2.47;;;9.10;99.90;;;;;;20705267;28;20034;-76
2022/02/17 20:29:06;;;;;;;26.33;4.05;;;9.00;99.90;;;;;;20663389;28;20092;-76
2022/02/17 20:39:07;;;;;;;17.40;3.97;;;9.00;99.90;;;;;;20639533;28;20058;-76
2022/02/17 20:59:28;;;;;;;20.63;2.85;;;9.00;99.90;;;;;;20657008;28;20558;-77
2022/02/17 21:09:29;;;;;;;16.67;2.87;;;9.00;99.90;;;;;;20655854;28;20053;-77
2022/02/17 21:19:29;;;;;;;12.93;3.13;;;9.00;99.90;;;;;;20675457;28;20612;-74
2022/02/17 21:29:30;;;;;;;11.87;3.13;;;9.10;99.90;;;;;;20702916;28;20558;-77
2022/02/17 21:39:31;;;;;;;19.97;2.70;;;9.10;99.90;;;;;;20733959;28;20025;-77
2022/02/17 21:49:32;;;;;;;12.23;2.97;;;9.00;99.90;;;;;;20733004;28;20068;-76
2022/02/17 21:59:35;;;;;;;12.73;2.10;;;9.00;99.90;;;;;;20665930;28;20038;-76
2022/02/17 22:09:37;;;;;;;20.35;2.40;;;9.10;99.90;;;;;;20649479;28;20038;-77
2022/02/17 22:19:39;;;;;;;17.65;2.80;;;9.10;99.90;;;;;;20649173;28;20506;-77
2022/02/17 22:29:40;;;;;;;11.30;2.40;;;8.90;99.90;;;;;;20649633;28;20085;-77
2022/02/17 22:39:41;;;;;;;17.60;2.40;;;9.00;99.90;;;;;;20652316;28;20038;-76
2022/02/17 22:49:42;;;;;;;19.73;3.23;;;9.10;99.90;;;;;;20650750;28;20511;-77
2022/02/17 22:59:44;;;;;;;15.77;2.47;;;9.00;99.90;;;;;;20651273;28;20129;-77
2022/02/17 23:20:06;;;;;;;16.30;3.47;;;8.90;99.90;;;;;;20648404;28;20823;-77
2022/02/17 23:30:06;;;;;;;;;;;8.70;99.90;;;;;;20647264;28;20110;-77
2022/02/17 23:40:10;;;;;;;18.40;2.90;;;8.50;99.90;;;;;;20689716;28;19993;-76
2022/02/17 23:50:10;;;;;;;20.40;3.35;;;8.40;99.90;;;;;;20688065;28;20554;-77
